createdAt,value
2022-08-24T00:02:05.958Z,2.10
2022-08-24T00:04:34.789Z,1.60
2022-08-24T00:07:10.229Z,2.10
2022-08-24T00:09:50.761Z,2.22
2022-08-24T00:12:19.378Z,2.20
2022-08-24T00:14:49.491Z,2.22
2022-08-24T00:17:18.057Z,2.15
2022-08-24T00:19:46.490Z,2.50
2022-08-24T00:22:16.156Z,2.70
2022-08-24T00:24:44.458Z,2.70
2022-08-24T00:27:13.100Z,2.63
2022-08-24T00:29:41.378Z,2.83
2022-08-24T00:32:09.857Z,2.45
2022-08-24T00:34:38.201Z,2.83
2022-08-24T00:37:06.521Z,2.92
2022-08-24T00:39:36.121Z,2.80
2022-08-24T00:42:04.917Z,2.63
2022-08-24T00:44:33.194Z,2.40
2022-08-24T00:47:05.044Z,2.83
2022-08-24T00:49:38.574Z,2.40
2022-08-24T00:52:13.877Z,2.58
2022-08-24T00:54:58.180Z,2.60
2022-08-24T00:57:31.976Z,2.70
2022-08-24T01:00:07.795Z,2.70
2022-08-24T01:02:42.098Z,2.45
2022-08-24T01:05:13.349Z,2.70
2022-08-24T01:07:42.547Z,3.80
2022-08-24T01:10:16.277Z,2.72
2022-08-24T01:12:59.806Z,2.88
2022-08-24T01:15:30.970Z,2.88
2022-08-24T01:18:17.188Z,2.70
2022-08-24T01:20:51.461Z,2.75
2022-08-24T01:23:40.620Z,2.85
2022-08-24T01:26:14.290Z,3.05
2022-08-24T01:28:47.405Z,3.03
2022-08-24T01:31:17.370Z,2.50
2022-08-24T01:33:45.700Z,3.03
2022-08-24T01:36:28.173Z,2.65
2022-08-24T01:39:02.537Z,3.03
2022-08-24T01:41:30.906Z,3.55
2022-08-24T01:44:00.759Z,3.17
2022-08-24T01:46:30.426Z,3.60
2022-08-24T01:48:59.480Z,3.70
2022-08-24T01:51:32.136Z,4.20
2022-08-24T01:54:03.910Z,3.20
2022-08-24T01:56:33.918Z,3.73
2022-08-24T01:59:03.242Z,4.33
2022-08-24T02:01:35.432Z,3.47
2022-08-24T02:04:06.637Z,3.80
2022-08-24T02:06:38.349Z,3.43
2022-08-24T02:09:11.237Z,3.67
2022-08-24T02:11:41.413Z,3.10
2022-08-24T02:14:13.624Z,2.83
2022-08-24T02:16:43.803Z,2.90
2022-08-24T02:19:12.474Z,3.47
2022-08-24T02:21:41.019Z,4.20
2022-08-24T02:24:10.950Z,3.93
2022-08-24T02:26:40.253Z,3.93
2022-08-24T02:29:08.880Z,4.00
2022-08-24T02:31:37.299Z,3.63
2022-08-24T02:34:06.726Z,3.80
2022-08-24T02:36:35.024Z,3.37
2022-08-24T02:39:03.376Z,3.53
2022-08-24T02:41:36.321Z,3.27
2022-08-24T02:44:06.712Z,3.70
2022-08-24T02:46:36.823Z,2.93
2022-08-24T02:49:11.941Z,3.30
2022-08-24T02:51:47.361Z,3.40
2022-08-24T02:54:21.171Z,3.30
2022-08-24T02:56:54.485Z,2.80
2022-08-24T02:59:23.477Z,2.83
2022-08-24T03:01:52.597Z,2.90
2022-08-24T03:04:22.564Z,3.30
2022-08-24T03:06:50.790Z,2.87
2022-08-24T03:09:19.367Z,3.10
2022-08-24T03:11:47.629Z,3.00
2022-08-24T03:14:19.159Z,3.47
2022-08-24T03:16:47.891Z,3.50
2022-08-24T03:19:16.442Z,2.97
2022-08-24T03:21:46.321Z,3.50
2022-08-24T03:24:14.775Z,3.57
2022-08-24T03:26:44.092Z,3.53
2022-08-24T03:29:13.330Z,3.10
2022-08-24T03:31:46.297Z,3.30
2022-08-24T03:34:15.923Z,3.70
2022-08-24T03:36:47.058Z,3.47
2022-08-24T03:39:17.767Z,3.60
2022-08-24T03:41:48.193Z,2.80
2022-08-24T03:44:19.179Z,3.17
2022-08-24T03:46:51.744Z,2.77
2022-08-24T03:49:21.133Z,2.90
2022-08-24T03:51:50.226Z,2.83
2022-08-24T03:54:21.591Z,2.43
2022-08-24T03:56:49.878Z,3.30
2022-08-24T03:59:20.079Z,3.30
2022-08-24T04:01:53.155Z,3.20
2022-08-24T04:04:21.444Z,3.50
2022-08-24T04:06:50.162Z,3.30
2022-08-24T04:09:19.255Z,3.40
2022-08-24T04:11:51.759Z,2.97
2022-08-24T04:14:26.598Z,3.00
2022-08-24T04:17:13.424Z,3.07
2022-08-24T04:19:57.572Z,3.00
2022-08-24T04:22:34.114Z,3.20
2022-08-24T04:25:02.525Z,3.40
2022-08-24T04:27:37.870Z,3.33
2022-08-24T04:30:07.479Z,3.10
2022-08-24T04:32:51.167Z,3.37
2022-08-24T04:35:19.949Z,3.53
2022-08-24T04:37:48.407Z,3.90
2022-08-24T04:40:16.863Z,3.67
2022-08-24T04:42:49.325Z,3.73
2022-08-24T04:45:17.729Z,3.30
2022-08-24T04:47:46.496Z,3.40
2022-08-24T04:50:16.114Z,3.77
2022-08-24T04:52:52.414Z,3.57
2022-08-24T04:55:20.833Z,3.67
2022-08-24T04:57:49.098Z,3.73
2022-08-24T05:00:17.940Z,3.60
2022-08-24T05:02:46.289Z,3.53
2022-08-24T05:05:16.706Z,3.70
2022-08-24T05:07:45.787Z,3.40
2022-08-24T05:10:15.199Z,3.60
2022-08-24T05:12:44.182Z,3.47
2022-08-24T05:15:13.549Z,3.87
2022-08-24T05:17:51.118Z,2.90
2022-08-24T05:20:21.762Z,3.40
2022-08-24T05:22:55.985Z,3.30
2022-08-24T05:25:25.106Z,4.10
2022-08-24T05:27:53.382Z,3.80
2022-08-24T05:30:21.908Z,4.30
2022-08-24T05:32:50.277Z,4.10
2022-08-24T05:35:18.704Z,4.20
2022-08-24T05:37:48.667Z,4.20
2022-08-24T05:40:20.328Z,3.93
2022-08-24T05:42:51.788Z,4.33
2022-08-24T05:45:20.548Z,4.00
2022-08-24T05:47:50.275Z,4.33
2022-08-24T05:50:38.445Z,3.70
2022-08-24T05:53:09.139Z,4.97
2022-08-24T05:55:40.900Z,3.90
2022-08-24T05:58:09.166Z,4.30
2022-08-24T06:00:41.289Z,4.30
2022-08-24T06:03:14.586Z,3.90
2022-08-24T06:06:04.867Z,3.85
2022-08-24T06:08:41.064Z,4.18
2022-08-24T06:11:11.033Z,3.88
2022-08-24T06:13:40.048Z,3.75
2022-08-24T06:16:22.117Z,3.40
2022-08-24T06:18:53.493Z,3.70
2022-08-24T06:21:28.653Z,3.55
2022-08-24T06:24:01.334Z,4.03
2022-08-24T06:26:50.282Z,3.33
2022-08-24T06:29:19.531Z,3.63
2022-08-24T06:31:54.759Z,3.70
2022-08-24T06:34:26.698Z,3.72
2022-08-24T06:36:55.293Z,3.75
2022-08-24T06:39:26.982Z,3.40
2022-08-24T06:41:57.456Z,3.50
2022-08-24T06:44:32.695Z,3.67
2022-08-24T06:47:09.562Z,3.53
2022-08-24T06:49:38.432Z,3.72
2022-08-24T06:52:07.358Z,3.60
2022-08-24T06:54:37.436Z,3.65
2022-08-24T06:57:06.467Z,3.72
2022-08-24T06:59:34.924Z,3.53
2022-08-24T07:02:03.348Z,2.97
2022-08-24T07:04:32.050Z,3.17
2022-08-24T07:07:19.012Z,3.17
2022-08-24T07:09:49.094Z,3.10
2022-08-24T07:12:17.281Z,3.05
2022-08-24T07:14:45.487Z,3.00
2022-08-24T07:17:13.769Z,2.97
2022-08-24T07:19:42.235Z,2.75
2022-08-24T07:22:10.620Z,3.13
2022-08-24T07:24:39.010Z,3.20
2022-08-24T07:27:08.670Z,2.92
2022-08-24T07:29:50.553Z,3.10
2022-08-24T07:32:21.461Z,2.67
2022-08-24T07:34:51.266Z,3.08
2022-08-24T07:37:19.512Z,3.13
2022-08-24T07:39:50.479Z,2.88
2022-08-24T07:42:27.126Z,3.35
2022-08-24T07:45:00.467Z,3.20
2022-08-24T07:47:39.442Z,3.08
2022-08-24T07:50:22.503Z,3.03
2022-08-24T07:52:51.858Z,3.13
2022-08-24T07:55:21.034Z,3.28
2022-08-24T07:57:53.100Z,2.95
2022-08-24T08:00:23.009Z,2.75
2022-08-24T08:02:57.563Z,2.88
2022-08-24T08:05:26.394Z,2.83
2022-08-24T08:07:57.026Z,3.30
2022-08-24T08:10:25.714Z,2.60
2022-08-24T08:12:56.274Z,2.70
2022-08-24T08:15:25.936Z,2.70
2022-08-24T08:18:03.033Z,2.53
2022-08-24T08:20:32.440Z,2.60
2022-08-24T08:23:19.666Z,2.40
2022-08-24T08:26:01.833Z,2.95
2022-08-24T08:28:48.856Z,2.15
2022-08-24T08:31:17.097Z,2.50
2022-08-24T08:33:45.435Z,2.15
2022-08-24T08:36:16.099Z,2.53
2022-08-24T08:38:51.826Z,2.72
2022-08-24T08:41:59.277Z,2.60
2022-08-24T08:44:52.229Z,2.30
2022-08-24T08:47:46.068Z,2.72
2022-08-24T08:50:22.025Z,2.40
2022-08-24T08:53:34.148Z,2.47
2022-08-24T08:56:16.795Z,3.00
2022-08-24T08:59:01.499Z,2.75
2022-08-24T09:01:54.664Z,2.20
2022-08-24T09:04:59.648Z,2.20
2022-08-24T09:07:40.713Z,2.08
2022-08-24T09:10:32.811Z,2.28
2022-08-24T09:13:16.305Z,2.17
2022-08-24T09:16:13.170Z,1.80
2022-08-24T09:19:04.479Z,2.13
2022-08-24T09:21:49.969Z,1.85
2022-08-24T09:24:38.995Z,2.35
2022-08-24T09:27:35.942Z,2.22
2022-08-24T09:30:14.906Z,2.25
2022-08-24T09:33:10.350Z,2.40
2022-08-24T09:38:59.521Z,2.40
2022-08-24T09:42:23.833Z,2.35
2022-08-24T09:45:27.381Z,2.40
2022-08-24T09:48:54.175Z,2.08
2022-08-24T09:52:03.294Z,2.17
2022-08-24T09:55:34.142Z,2.30
2022-08-24T09:58:20.080Z,2.28
2022-08-24T10:00:52.305Z,2.17
2022-08-24T10:03:37.768Z,2.17
2022-08-24T10:06:24.253Z,2.53
2022-08-24T10:09:09.338Z,2.47
2022-08-24T10:11:48.434Z,2.45
2022-08-24T10:14:36.846Z,2.13
2022-08-24T10:17:16.983Z,2.67
2022-08-24T10:20:01.527Z,2.55
2022-08-24T10:23:17.114Z,2.47
2022-08-24T10:26:04.421Z,2.53
2022-08-24T10:28:57.859Z,2.22
2022-08-24T10:31:32.738Z,1.98
2022-08-24T10:34:22.123Z,2.28
2022-08-24T10:37:10.457Z,4.28
2022-08-24T10:40:13.115Z,2.60
2022-08-24T10:43:28.683Z,2.30
2022-08-24T10:46:37.873Z,2.20
2022-08-24T10:50:00.339Z,2.30
2022-08-24T10:53:14.717Z,2.15
2022-08-24T10:55:44.360Z,2.00
2022-08-24T10:58:40.151Z,2.25
2022-08-24T11:01:20.752Z,2.20
2022-08-24T11:03:56.600Z,2.00
2022-08-24T11:06:28.241Z,2.20
2022-08-24T11:09:01.718Z,2.05
2022-08-24T11:11:33.792Z,2.17
2022-08-24T11:14:09.461Z,1.73
2022-08-24T11:16:42.528Z,1.90
2022-08-24T11:19:15.801Z,2.30
2022-08-24T11:21:52.126Z,2.63
2022-08-24T11:24:41.615Z,1.80
2022-08-24T11:27:27.946Z,1.80
2022-08-24T11:30:02.026Z,1.90
2022-08-24T11:32:38.478Z,2.42
2022-08-24T11:35:19.707Z,2.10
2022-08-24T11:37:49.902Z,2.30
2022-08-24T11:40:20.757Z,2.13
2022-08-24T11:43:19.332Z,1.90
2022-08-24T11:46:06.614Z,1.92
2022-08-24T11:48:45.206Z,1.75
2022-08-24T11:51:27.908Z,1.80
2022-08-24T11:54:05.092Z,2.20
2022-08-24T11:56:39.801Z,2.08
2022-08-24T11:59:21.211Z,1.75
2022-08-24T12:01:55.671Z,1.67
2022-08-24T12:04:43.464Z,1.77
2022-08-24T12:07:24.729Z,2.15
2022-08-24T12:10:10.167Z,1.85
2022-08-24T12:12:46.575Z,1.48
2022-08-24T12:15:20.941Z,1.98
2022-08-24T12:17:57.212Z,1.90
2022-08-24T12:20:34.531Z,1.83
2022-08-24T12:23:09.257Z,1.90
2022-08-24T12:25:55.834Z,1.90
2022-08-24T12:28:30.958Z,1.80
2022-08-24T12:31:06.724Z,1.73
2022-08-24T12:33:39.342Z,1.70
2022-08-24T12:36:18.850Z,1.63
2022-08-24T12:39:06.957Z,1.75
2022-08-24T12:41:37.938Z,1.75
2022-08-24T12:44:13.574Z,1.65
2022-08-24T12:46:43.576Z,2.15
2022-08-24T12:49:21.230Z,1.75
2022-08-24T12:52:15.241Z,1.77
2022-08-24T12:55:08.963Z,1.45
2022-08-24T12:57:55.001Z,1.45
2022-08-24T13:00:28.229Z,1.20
2022-08-24T13:03:00.352Z,1.67
2022-08-24T13:05:42.254Z,1.58
2022-08-24T13:08:15.552Z,1.98
2022-08-24T13:10:54.506Z,1.60
2022-08-24T13:13:41.977Z,1.75
2022-08-24T13:16:10.421Z,1.42
2022-08-24T13:18:53.147Z,1.63
2022-08-24T13:21:54.379Z,1.60
2022-08-24T13:25:01.619Z,1.85
2022-08-24T13:28:10.978Z,1.52
2022-08-24T13:31:12.517Z,1.58
2022-08-24T13:33:46.258Z,1.70
2022-08-24T13:36:56.697Z,1.58
2022-08-24T13:40:09.732Z,1.60
2022-08-24T13:43:14.021Z,1.75
2022-08-24T13:45:47.818Z,1.80
2022-08-24T13:48:34.449Z,1.55
2022-08-24T13:51:22.008Z,1.63
2022-08-24T13:54:05.804Z,1.83
2022-08-24T13:57:05.746Z,1.73
2022-08-24T13:59:57.482Z,1.45
2022-08-24T14:02:38.187Z,1.67
2022-08-24T14:05:19.500Z,1.55
2022-08-24T14:07:58.481Z,1.65
2022-08-24T14:10:45.340Z,1.80
2022-08-24T14:13:36.364Z,1.60
2022-08-24T14:16:45.505Z,1.65
2022-08-24T14:19:21.698Z,1.77
2022-08-24T14:21:59.274Z,1.60
2022-08-24T14:24:36.949Z,1.60
2022-08-24T14:27:11.404Z,1.80
2022-08-24T14:29:45.310Z,1.90
2022-08-24T14:33:05.413Z,1.60
2022-08-24T14:35:41.054Z,1.67
2022-08-24T14:38:33.238Z,1.70
2022-08-24T14:41:20.538Z,1.75
2022-08-24T14:44:14.604Z,1.73
2022-08-24T14:46:54.309Z,1.55
2022-08-24T14:49:38.908Z,1.52
2022-08-24T14:52:19.169Z,1.80
2022-08-24T14:55:05.765Z,1.67
2022-08-24T14:57:48.674Z,2.08
2022-08-24T15:00:21.252Z,1.85
2022-08-24T15:03:38.145Z,1.70
2022-08-24T15:06:27.372Z,1.90
2022-08-24T15:09:09.906Z,2.10
2022-08-24T15:11:43.613Z,1.83
2022-08-24T15:14:37.428Z,2.10
2022-08-24T15:17:11.258Z,2.13
2022-08-24T15:19:52.898Z,2.10
2022-08-24T15:22:29.713Z,2.35
2022-08-24T15:25:06.402Z,1.90
2022-08-24T15:27:44.659Z,1.88
2022-08-24T15:30:24.480Z,2.25
2022-08-24T15:33:09.737Z,2.03
2022-08-24T15:35:41.817Z,2.33
2022-08-24T15:38:24.374Z,2.28
2022-08-24T15:41:06.150Z,2.40
2022-08-24T15:43:42.070Z,2.13
2022-08-24T15:46:12.043Z,2.30
2022-08-24T15:48:43.966Z,2.28
2022-08-24T15:51:37.128Z,1.90
2022-08-24T15:54:28.411Z,2.15
2022-08-24T15:57:01.607Z,1.90
2022-08-24T15:59:45.962Z,2.15
2022-08-24T16:02:30.833Z,2.22
2022-08-24T16:05:14.576Z,2.08
2022-08-24T16:08:10.538Z,2.30
2022-08-24T16:10:44.137Z,2.30
2022-08-24T16:13:26.427Z,2.13
2022-08-24T16:16:02.462Z,2.53
2022-08-24T16:18:47.916Z,2.20
2022-08-24T16:21:26.912Z,1.85
2022-08-24T16:24:01.853Z,2.45
2022-08-24T16:26:37.565Z,2.47
2022-08-24T16:29:06.729Z,2.22
2022-08-24T16:31:48.517Z,2.08
2022-08-24T16:34:31.052Z,2.20
2022-08-24T16:36:59.770Z,2.13
2022-08-24T16:39:28.144Z,2.28
2022-08-24T16:42:01.316Z,2.20
2022-08-24T16:44:38.143Z,2.50
2022-08-24T16:47:08.544Z,2.67
2022-08-24T16:49:39.205Z,2.50
2022-08-24T16:52:08.202Z,2.70
2022-08-24T16:54:36.467Z,2.10
2022-08-24T16:57:14.227Z,2.25
2022-08-24T16:59:46.865Z,2.22
2022-08-24T17:02:16.595Z,2.53
2022-08-24T17:04:45.731Z,2.17
2022-08-24T17:07:21.325Z,2.30
2022-08-24T17:09:50.023Z,2.60
2022-08-24T17:12:20.789Z,2.40
2022-08-24T17:14:49.169Z,2.55
2022-08-24T17:17:21.724Z,2.65
2022-08-24T17:19:53.056Z,2.58
2022-08-24T17:22:22.430Z,2.60
2022-08-24T17:24:53.374Z,2.35
2022-08-24T17:27:30.220Z,2.42
2022-08-24T17:29:59.592Z,2.45
2022-08-24T17:32:27.813Z,2.58
2022-08-24T17:34:56.071Z,2.47
2022-08-24T17:37:24.369Z,2.60
2022-08-24T17:39:57.117Z,2.67
2022-08-24T17:45:16.418Z,3.22
2022-08-24T17:47:45.169Z,2.92
2022-08-24T17:50:15.910Z,2.50
2022-08-24T17:52:44.858Z,2.83
2022-08-24T17:55:17.077Z,2.58
2022-08-24T17:57:53.831Z,3.05
2022-08-24T18:00:22.282Z,2.85
2022-08-24T18:02:50.988Z,2.88
2022-08-24T18:05:22.060Z,2.88
2022-08-24T18:07:54.226Z,3.38
2022-08-24T18:10:27.880Z,3.00
2022-08-24T18:12:58.183Z,2.85
2022-08-24T18:15:33.643Z,2.92
2022-08-24T18:18:10.093Z,2.80
2022-08-24T18:20:41.909Z,3.30
2022-08-24T18:23:11.272Z,2.95
2022-08-24T18:25:44.906Z,3.05
2022-08-24T18:28:16.646Z,2.72
2022-08-24T18:30:46.214Z,3.00
2022-08-24T18:33:15.106Z,3.17
2022-08-24T18:35:43.376Z,3.15
2022-08-24T18:38:11.611Z,2.78
2022-08-24T18:40:41.389Z,2.85
2022-08-24T18:43:23.785Z,3.30
2022-08-24T18:45:53.114Z,3.22
2022-08-24T18:48:21.875Z,3.13
2022-08-24T18:50:50.626Z,3.00
2022-08-24T18:53:19.497Z,3.20
2022-08-24T18:55:48.923Z,3.40
2022-08-24T18:58:17.332Z,3.28
2022-08-24T19:00:47.857Z,3.00
2022-08-24T19:03:20.783Z,3.40
2022-08-24T19:05:49.067Z,3.30
2022-08-24T19:08:17.276Z,3.88
2022-08-24T19:10:46.323Z,2.97
2022-08-24T19:13:18.207Z,3.30
2022-08-24T19:15:49.540Z,3.28
2022-08-24T19:18:20.530Z,3.30
2022-08-24T19:20:51.551Z,3.60
2022-08-24T19:23:24.810Z,3.90
2022-08-24T19:25:54.508Z,2.95
2022-08-24T19:28:23.537Z,3.30
2022-08-24T19:30:56.603Z,3.40
2022-08-24T19:33:28.266Z,3.75
2022-08-24T19:35:56.985Z,3.20
2022-08-24T19:38:26.564Z,4.00
2022-08-24T19:40:57.111Z,3.50
2022-08-24T19:43:27.124Z,3.67
2022-08-24T19:46:05.437Z,3.90
2022-08-24T19:48:35.774Z,3.80
2022-08-24T19:51:05.907Z,3.67
2022-08-24T19:53:39.251Z,3.67
2022-08-24T19:56:08.878Z,3.50
2022-08-24T19:58:47.886Z,3.50
2022-08-24T20:01:21.294Z,4.13
2022-08-24T20:03:58.470Z,4.10
2022-08-24T20:06:28.095Z,4.10
2022-08-24T20:08:56.671Z,4.15
2022-08-24T20:11:25.433Z,3.95
2022-08-24T20:13:55.102Z,3.72
2022-08-24T20:16:28.360Z,3.70
2022-08-24T20:18:56.581Z,3.88
2022-08-24T20:21:29.438Z,4.20
2022-08-24T20:24:00.388Z,4.30
2022-08-24T20:26:32.749Z,3.83
2022-08-24T20:29:01.082Z,4.25
2022-08-24T20:31:30.708Z,4.47
2022-08-24T20:33:58.993Z,4.35
2022-08-24T20:36:32.012Z,4.15
2022-08-24T20:39:02.464Z,4.40
2022-08-24T20:41:30.987Z,4.70
2022-08-24T20:43:59.690Z,5.00
2022-08-24T20:46:29.846Z,3.85
2022-08-24T20:48:59.275Z,4.20
2022-08-24T20:51:27.734Z,4.47
2022-08-24T20:53:56.729Z,4.63
2022-08-24T20:56:31.671Z,4.85
2022-08-24T20:59:02.166Z,5.00
2022-08-24T21:01:32.788Z,4.65
2022-08-24T21:04:05.017Z,5.20
2022-08-24T21:06:34.672Z,4.45
2022-08-24T21:09:04.184Z,5.15
2022-08-24T21:11:33.245Z,5.15
2022-08-24T21:14:01.778Z,4.50
2022-08-24T21:16:31.379Z,4.70
2022-08-24T21:18:59.633Z,4.63
2022-08-24T21:21:27.936Z,5.03
2022-08-24T21:23:56.162Z,4.90
2022-08-24T21:26:27.083Z,4.93
2022-08-24T21:28:57.347Z,5.30
2022-08-24T21:31:26.059Z,4.93
2022-08-24T21:34:13.826Z,4.32
2022-08-24T21:36:42.739Z,5.47
2022-08-24T21:39:11.305Z,4.93
2022-08-24T21:41:39.916Z,5.38
2022-08-24T21:44:08.235Z,5.40
2022-08-24T21:46:39.282Z,5.00
2022-08-24T21:49:12.131Z,5.22
2022-08-24T21:51:40.739Z,5.00
2022-08-24T21:54:09.518Z,5.35
2022-08-24T21:56:37.793Z,4.82
2022-08-24T21:59:06.692Z,5.40
2022-08-24T22:02:00.442Z,5.25
2022-08-24T22:04:30.561Z,5.38
2022-08-24T22:07:02.890Z,5.22
2022-08-24T22:09:31.272Z,5.47
2022-08-24T22:11:59.914Z,5.03
2022-08-24T22:14:28.157Z,4.90
2022-08-24T22:16:56.345Z,5.25
2022-08-24T22:19:24.640Z,4.93
2022-08-24T22:21:54.160Z,5.07
2022-08-24T22:24:22.490Z,6.03
2022-08-24T22:26:50.806Z,5.30
2022-08-24T22:29:19.018Z,5.22
2022-08-24T22:31:47.919Z,5.20
2022-08-24T22:34:19.674Z,5.57
2022-08-24T22:36:50.363Z,5.18
2022-08-24T22:39:19.962Z,5.55
2022-08-24T22:41:48.154Z,5.47
2022-08-24T22:44:22.410Z,5.70
2022-08-24T22:46:53.576Z,5.78
2022-08-24T22:49:25.268Z,5.20
2022-08-24T22:51:54.096Z,5.55
2022-08-24T22:54:25.417Z,6.03
2022-08-24T22:56:56.181Z,5.50
2022-08-24T22:59:26.987Z,5.53
2022-08-24T23:01:57.602Z,6.05
2022-08-24T23:04:29.488Z,5.35
2022-08-24T23:06:57.815Z,6.18
2022-08-24T23:09:28.191Z,5.70
2022-08-24T23:12:02.243Z,5.82
2022-08-24T23:14:30.504Z,5.68
2022-08-24T23:17:01.374Z,5.05
2022-08-24T23:19:47.947Z,6.25
2022-08-24T23:22:19.853Z,6.43
2022-08-24T23:24:49.930Z,5.70
2022-08-24T23:27:19.927Z,5.53
2022-08-24T23:29:49.380Z,6.10
2022-08-24T23:32:19.883Z,5.43
2022-08-24T23:34:48.896Z,6.22
2022-08-24T23:37:18.571Z,5.88
2022-08-24T23:39:46.861Z,5.97
2022-08-24T23:42:16.816Z,5.28
2022-08-24T23:44:45.021Z,6.05
2022-08-24T23:47:13.282Z,5.88
2022-08-24T23:49:41.730Z,6.07
2022-08-24T23:52:26.674Z,6.28
2022-08-24T23:55:19.131Z,6.15
2022-08-24T23:57:46.653Z,6.10
